Time;durP1;ratioP1;P1;durP2;ratioP2;P2;SDS_P1;SDS_P2;PMS_P1;PMS_P2;Temp;Humidity;BMP_temperature;BMP_pressure;BME280_temperature;BME280_humidity;BME280_pressure;Samples;Min_cycle;Max_cycle;Signal;HPM_P1;HPM_P2
2022/02/04 11:55:34;;;;;;;1.90;1.20;;;;;;;6.14;100.00;98897.19;5132147;27;20392;-84
2022/02/04 11:58:04;;;;;;;1.50;0.98;;;;;;;6.17;100.00;98894.19;5090316;28;20467;-84
2022/02/04 12:00:39;;;;;;;2.60;1.73;;;;;;;6.20;100.00;98883.06;5107862;28;20503;-85
2022/02/04 12:03:29;;;;;;;2.95;1.50;;;;;;;6.26;100.00;98881.53;5104600;28;20062;-85
2022/02/04 12:05:56;;;;;;;1.65;1.10;;;;;;;6.29;100.00;98875.81;5102708;28;20047;-85
2022/02/04 12:08:25;;;;;;;2.70;1.75;;;;;;;6.25;100.00;98860.97;5102677;28;20056;-85
2022/02/04 12:10:55;;;;;;;1.88;1.40;;;;;;;6.20;100.00;98855.19;5108311;28;20040;-85
2022/02/04 12:13:24;;;;;;;2.67;1.45;;;;;;;6.17;100.00;98845.59;5107688;28;20055;-85
2022/02/04 12:15:55;;;;;;;3.35;1.60;;;;;;;6.26;100.00;98854.53;5108346;28;20052;-85
2022/02/04 12:18:26;;;;;;;4.32;2.03;;;;;;;6.26;100.00;98845.59;5107763;28;20054;-85
2022/02/04 12:20:58;;;;;;;4.35;1.85;;;;;;;6.33;100.00;98850.16;5100382;28;20047;-84
2022/02/04 12:23:44;;;;;;;1.38;1.17;;;;;;;6.31;100.00;98851.38;5107704;28;20223;-85
2022/02/04 12:26:19;;;;;;;1.17;0.80;;;;;;;6.32;100.00;98851.19;5090367;28;20055;-85
2022/02/04 12:28:48;;;;;;;2.38;1.20;;;;;;;6.37;100.00;98843.44;5088098;28;20048;-85
2022/02/04 12:31:23;;;;;;;3.70;1.35;;;;;;;6.30;100.00;98831.59;5108037;28;20039;-85
2022/02/04 12:33:53;;;;;;;1.52;1.15;;;;;;;6.48;100.00;98838.72;5106062;28;20040;-84
2022/02/04 12:36:21;;;;;;;0.98;0.80;;;;;;;6.49;100.00;98837.72;5108063;28;20056;-85
2022/02/04 12:38:50;;;;;;;0.95;0.90;;;;;;;6.53;100.00;98825.56;5105615;28;20079;-85
2022/02/04 12:41:23;;;;;;;0.93;0.70;;;;;;;6.45;100.00;98822.88;5107814;28;20047;-85
2022/02/04 12:43:54;;;;;;;0.60;0.60;;;;;;;6.42;99.50;98817.78;5106065;28;20044;-84
2022/02/04 12:46:21;;;;;;;2.75;0.60;;;;;;;6.32;98.44;98813.41;5107202;28;20052;-84
2022/02/04 12:49:03;;;;;;;0.95;0.77;;;;;;;6.38;100.00;98811.88;5107335;28;20108;-84
2022/02/04 12:51:44;;;;;;;0.73;0.60;;;;;;;6.41;100.00;98803.44;5094063;28;20050;-84
2022/02/04 12:54:12;;;;;;;2.13;0.90;;;;;;;6.53;100.00;98812.06;5073196;28;20140;-85
2022/02/04 12:57:04;;;;;;;0.70;0.70;;;;;;;6.53;100.00;98803.94;5079463;28;20044;-85
2022/02/04 12:59:53;;;;;;;0.90;0.90;;;;;;;6.63;100.00;98809.22;5079040;28;20411;-85
2022/02/04 13:02:33;;;;;;;1.48;1.17;;;;;;;6.59;100.00;98799.75;5078689;28;20048;-85
2022/02/04 13:07:56;;;;;;;1.48;0.88;;;;;;;6.51;100.00;98793.31;5073691;28;20700;-84
2022/02/04 13:10:25;;;;;;;1.05;0.95;;;;;;;6.43;100.00;98774.44;5072549;28;20048;-85
2022/02/04 13:12:55;;;;;;;1.30;1.20;;;;;;;6.47;100.00;98789.25;5071934;28;20443;-85
2022/02/04 13:15:23;;;;;;;1.30;0.82;;;;;;;6.37;100.00;98797.53;5072866;28;20132;-85
2022/02/04 13:17:50;;;;;;;1.20;0.93;;;;;;;6.31;100.00;98779.31;5072303;28;20132;-85
2022/02/04 13:20:21;;;;;;;1.88;1.25;;;;;;;6.19;100.00;98783.34;5063151;28;20083;-84
2022/02/04 13:22:51;;;;;;;1.15;0.70;;;;;;;6.20;100.00;98791.28;5073330;28;20052;-85
2022/02/04 13:25:21;;;;;;;1.30;1.10;;;;;;;6.10;100.00;98795.97;5072798;28;20121;-85
2022/02/04 13:28:11;;;;;;;2.93;1.33;;;;;;;6.01;100.00;98778.91;5073146;28;20087;-85
2022/02/04 13:30:41;;;;;;;4.30;1.02;;;;;;;6.08;100.00;98789.03;5071266;28;20511;-85
2022/02/04 13:33:22;;;;;;;1.25;0.90;;;;;;;6.27;100.00;98782.50;5055975;28;20053;-84
2022/02/04 13:36:19;;;;;;;1.38;0.80;;;;;;;6.25;100.00;98763.78;5052916;28;20132;-84
2022/02/04 13:38:56;;;;;;;2.95;1.05;;;;;;;6.31;100.00;98773.06;5072784;28;20044;-85
2022/02/04 13:41:39;;;;;;;1.23;0.70;;;;;;;6.19;100.00;98757.19;5056376;28;20049;-85
2022/02/04 13:44:35;;;;;;;1.20;0.90;;;;;;;6.19;100.00;98753.66;5052462;28;20079;-85
2022/02/04 13:47:19;;;;;;;1.58;1.10;;;;;;;6.17;100.00;98771.84;5071689;28;20159;-85
2022/02/04 13:50:03;;;;;;;1.10;1.00;;;;;;;6.15;100.00;98761.22;5071272;28;20045;-85
2022/02/04 13:52:56;;;;;;;2.70;1.20;;;;;;;6.16;100.00;98773.72;5072655;28;20492;-84
2022/02/04 13:55:31;;;;;;;2.00;1.40;;;;;;;6.19;100.00;98778.78;5065475;28;20041;-85
2022/02/04 13:58:10;;;;;;;2.65;1.50;;;;;;;6.15;100.00;98769.31;5071054;28;20056;-84
2022/02/04 14:00:52;;;;;;;1.75;1.15;;;;;;;6.10;99.79;98749.25;5066650;28;20045;-84
2022/02/04 14:03:22;;;;;;;4.78;1.60;;;;;;;6.10;99.52;98754.66;5069061;28;20076;-84
2022/02/04 14:05:55;;;;;;;1.55;1.45;;;;;;;6.13;98.37;98771.34;5072261;28;20087;-85
2022/02/04 14:08:32;;;;;;;5.25;1.85;;;;;;;6.13;100.00;98774.03;5071875;28;20056;-85
2022/02/04 14:11:08;;;;;;;2.05;1.50;;;;;;;6.09;97.65;98761.06;5074919;28;20052;-84
2022/02/04 14:13:35;;;;;;;4.25;1.50;;;;;;;6.06;97.56;98759.53;5071952;28;20287;-85
2022/02/04 14:16:06;;;;;;;2.25;1.42;;;;;;;6.03;99.01;98749.91;5072985;28;20094;-84
2022/02/04 14:18:35;;;;;;;1.98;1.13;;;;;;;6.00;97.68;98741.28;5071871;28;20053;-85
2022/02/04 14:21:03;;;;;;;1.17;1.08;;;;;;;6.01;98.93;98746.53;5069557;28;20059;-85
2022/02/04 14:23:30;;;;;;;1.63;1.00;;;;;;;5.99;96.04;98732.38;5071950;28;20080;-85
2022/02/04 14:26:03;;;;;;;1.35;0.98;;;;;;;5.96;98.94;98748.84;5057121;28;20133;-85
2022/02/04 14:28:38;;;;;;;2.80;1.50;;;;;;;6.15;97.78;98755.81;5052478;28;20385;-85
2022/02/04 14:31:14;;;;;;;1.90;1.30;;;;;;;6.10;99.36;98754.66;5071766;28;20048;-85
2022/02/04 14:36:55;;;;;;;4.30;1.40;;;;;;;5.98;97.45;98741.47;5052430;28;20067;-84
2022/02/04 14:53:28;;;;;;;8.57;1.85;;;;;;;6.04;100.00;98742.66;4994553;28;19997;-85
2022/02/04 15:01:29;;;;;;;1.35;1.17;;;;;;;6.13;100.00;98730.03;5071205;28;20060;-84
2022/02/04 15:04:04;;;;;;;0.88;0.75;;;;;;;5.99;98.44;98718.88;5071303;28;20135;-84
2022/02/04 15:06:34;;;;;;;1.63;1.30;;;;;;;6.03;97.08;98725.59;5069968;28;20055;-85
2022/02/04 15:09:02;;;;;;;1.50;1.10;;;;;;;6.06;97.11;98708.25;5071380;28;20048;-85
2022/02/04 15:11:32;;;;;;;2.90;1.10;;;;;;;5.96;99.41;98697.59;5067296;28;20119;-84
2022/02/04 15:14:00;;;;;;;1.13;1.02;;;;;;;5.96;99.37;98699.44;5065081;28;20048;-85
2022/02/04 15:16:27;;;;;;;1.08;0.75;;;;;;;5.97;95.44;98704.69;5051322;28;20045;-85
2022/02/04 15:18:54;;;;;;;2.00;1.27;;;;;;;5.93;94.76;98695.22;5067983;28;20140;-85
2022/02/04 15:21:23;;;;;;;1.92;1.00;;;;;;;6.08;96.17;98705.38;5070921;28;20480;-85
2022/02/04 15:23:53;;;;;;;3.23;1.10;;;;;;;5.98;93.30;98694.75;5054656;28;20408;-85
2022/02/04 15:26:21;;;;;;;1.48;1.02;;;;;;;5.92;92.91;98690.00;5055181;28;20543;-85
2022/02/04 15:28:51;;;;;;;4.47;2.42;;;;;;;5.94;94.38;98683.41;5070163;28;20051;-84
2022/02/04 15:31:30;;;;;;;3.53;1.98;;;;;;;6.00;92.33;98692.72;5069566;28;20063;-85
2022/02/04 15:33:58;;;;;;;1.13;1.02;;;;;;;5.93;92.67;98691.66;5063635;28;20047;-85
2022/02/04 15:36:29;;;;;;;2.08;1.17;;;;;;;5.91;92.39;98696.41;5070578;28;20063;-85
2022/02/04 15:38:57;;;;;;;3.22;1.30;;;;;;;5.85;94.92;98679.03;5070204;28;20472;-85
2022/02/04 15:41:25;;;;;;;1.58;1.00;;;;;;;5.92;93.47;98698.09;5070897;28;20121;-85
2022/02/04 15:43:56;;;;;;;4.10;1.50;;;;;;;6.01;93.82;98695.25;5070490;28;20458;-84
2022/02/04 15:46:40;;;;;;;1.33;1.00;;;;;;;5.97;93.31;98695.75;5070080;28;20052;-85
2022/02/04 15:52:37;;;;;;;6.45;1.00;;;;;;;5.92;92.63;98696.22;5047004;28;20045;-85
2022/02/04 15:55:29;;;;;;;1.23;1.00;;;;;;;5.95;93.14;98700.47;5069135;28;20040;-85
2022/02/04 15:58:17;;;;;;;1.13;0.98;;;;;;;5.97;94.24;98684.97;5070832;28;20451;-84
2022/02/04 16:03:41;;;;;;;0.80;0.80;;;;;;;5.95;93.38;98679.72;5058812;28;20040;-84
2022/02/04 16:06:12;;;;;;;1.92;0.68;;;;;;;5.93;97.01;98670.94;5069922;28;20068;-85
2022/02/04 16:08:40;;;;;;;0.63;0.60;;;;;;;5.75;96.54;98654.91;5068319;28;20059;-85
2022/02/04 16:11:18;;;;;;;1.17;0.80;;;;;;;5.78;95.21;98664.50;5069119;28;20102;-85
2022/02/04 16:13:50;;;;;;;0.70;0.70;;;;;;;5.93;96.71;98664.69;5070258;28;20113;-84
2022/02/04 16:16:28;;;;;;;0.70;0.70;;;;;;;5.89;96.25;98642.59;5068834;28;20044;-84
2022/02/04 16:19:14;;;;;;;0.63;0.60;;;;;;;5.86;97.44;98648.34;5064367;28;20508;-84
2022/02/04 16:21:48;;;;;;;0.52;0.50;;;;;;;5.98;97.11;98647.03;5050717;28;20060;-84
2022/02/04 16:24:42;;;;;;;0.65;0.60;;;;;;;5.89;97.39;98641.78;5054190;28;20052;-85
2022/02/04 16:29:58;;;;;;;1.60;0.50;;;;;;;5.82;98.69;98641.59;5069712;28;20126;-85
2022/02/04 16:32:25;;;;;;;0.40;0.40;;;;;;;5.88;99.06;98648.16;5062974;28;20075;-84
2022/02/04 16:35:02;;;;;;;0.98;0.90;;;;;;;5.82;99.26;98636.19;5063946;28;20087;-84
2022/02/04 16:37:32;;;;;;;0.50;0.50;;;;;;;5.86;98.79;98634.84;5069231;28;20064;-85
2022/02/04 16:40:04;;;;;;;0.73;0.60;;;;;;;5.74;99.19;98620.00;5069277;28;20052;-84
2022/02/04 16:42:33;;;;;;;1.50;0.80;;;;;;;5.79;99.18;98640.06;5072184;28;20136;-85
2022/02/04 16:45:00;;;;;;;0.93;0.60;;;;;;;5.75;100.00;98654.91;5073097;28;20072;-85
2022/02/04 16:47:28;;;;;;;0.73;0.70;;;;;;;5.76;100.00;98647.66;5075066;28;20044;-85
2022/02/04 16:49:57;;;;;;;0.60;0.60;;;;;;;5.88;99.52;98653.56;5073520;28;20084;-84
2022/02/04 16:52:23;;;;;;;0.82;0.80;;;;;;;5.88;99.35;98665.19;5073918;28;20925;-84
2022/02/04 16:54:53;;;;;;;1.40;0.80;;;;;;;5.76;100.00;98667.38;5074831;28;20044;-84
2022/02/04 16:57:24;;;;;;;1.52;0.90;;;;;;;5.78;100.00;98664.50;5072843;28;20052;-85
2022/02/04 16:59:51;;;;;;;1.02;0.90;;;;;;;5.87;99.00;98655.41;5075484;28;20082;-85
2022/02/04 17:02:18;;;;;;;0.98;0.80;;;;;;;5.78;99.46;98653.72;5073284;28;20082;-85
2022/02/04 17:04:48;;;;;;;1.73;0.90;;;;;;;5.78;99.15;98668.06;5074127;28;20144;-84
2022/02/04 17:07:21;;;;;;;1.35;1.00;;;;;;;5.76;97.21;98653.03;5065151;28;20044;-84
2022/02/04 17:09:49;;;;;;;1.60;1.25;;;;;;;5.71;98.91;98644.63;5071291;28;20507;-84
2022/02/04 17:12:26;;;;;;;1.42;1.08;;;;;;;5.79;96.46;98658.94;5073616;28;20373;-85
2022/02/04 17:14:59;;;;;;;2.53;1.00;;;;;;;5.78;99.59;98646.47;5080140;28;20052;-84
2022/02/04 17:17:28;;;;;;;0.75;0.75;;;;;;;5.86;100.00;98661.84;5082096;28;20138;-85
